<?xml version="1.0" encoding="UTF-8" standalone="no" ?>
<gpx xmlns="http://www.topografix.com/GPX/1/1" xmlns:xsi="http://www.w3.org/2001/XMLSchema-instance" xsi:schemaLocation="http://www.topografix.com/GPX/1/1 http://www.topografix.com/GPX/1/1/gpx.xsd" version="1.1" creator="VisuGPX - https://www.visugpx.com">
  <metadata>
    <name>Coteaux Saint-Nazaire-les-Eymes - Bernin - Short</name>
    <desc><![CDATA[Coteaux Saint-Nazaire-les-Eymes - Bernin - Short]]></desc>
  </metadata>
  <trk>
    <name><![CDATA[Coteaux Saint-Nazaire-les-Eymes - Bernin - 4521 - UtagawaVTT.com]]></name>
    <trkseg>
      <trkpt lat="45.24854" lon="5.84354">
        <ele>293</ele>
        <time>2010-06-06T07:10:43Z</time>
      </trkpt>
      <trkpt lat="45.25027" lon="5.84297">
        <ele>309</ele>
        <time>2010-06-06T07:10:47.968Z</time>
      </trkpt>
      <trkpt lat="45.25051" lon="5.84261">
        <ele>310</ele>
        <time>2010-06-06T07:10:52.719Z</time>
      </trkpt>
      <trkpt lat="45.25033" lon="5.84312">
        <ele>309</ele>
        <time>2010-06-06T07:10:52.986Z</time>
      </trkpt>
      <trkpt lat="45.25021" lon="5.84353">
        <ele>307</ele>
        <time>2010-06-06T07:10:53.079Z</time>
      </trkpt>
      <trkpt lat="45.25026" lon="5.84373">
        <ele>308</ele>
        <time>2010-06-06T07:10:53.122Z</time>
      </trkpt>
      <trkpt lat="45.25036" lon="5.84387">
        <ele>308</ele>
        <time>2010-06-06T07:10:53.164Z</time>
      </trkpt>
      <trkpt lat="45.25044" lon="5.84406">
        <ele>308</ele>
        <time>2010-06-06T07:10:53.209Z</time>
      </trkpt>
      <trkpt lat="45.25073" lon="5.84513">
        <ele>304</ele>
        <time>2010-06-06T07:10:53.540Z</time>
      </trkpt>
      <trkpt lat="45.25101" lon="5.84706">
        <ele>304</ele>
        <time>2010-06-06T07:10:54.110Z</time>
      </trkpt>
      <trkpt lat="45.25274" lon="5.84575">
        <ele>320</ele>
        <time>2010-06-06T07:10:54.767Z</time>
      </trkpt>
      <trkpt lat="45.25441" lon="5.84464">
        <ele>339</ele>
        <time>2010-06-06T07:10:55.205Z</time>
      </trkpt>
      <trkpt lat="45.25514" lon="5.84508">
        <ele>344</ele>
        <time>2010-06-06T07:10:55.475Z</time>
      </trkpt>
      <trkpt lat="45.25542" lon="5.84497">
        <ele>346</ele>
        <time>2010-06-06T07:10:55.530Z</time>
      </trkpt>
      <trkpt lat="45.25553" lon="5.84535">
        <ele>346</ele>
        <time>2010-06-06T07:10:55.601Z</time>
      </trkpt>
      <trkpt lat="45.25572" lon="5.84542">
        <ele>346</ele>
        <time>2010-06-06T07:10:55.646Z</time>
      </trkpt>
      <trkpt lat="45.25622" lon="5.84699">
        <ele>346</ele>
        <time>2010-06-06T07:10:55.946Z</time>
      </trkpt>
      <trkpt lat="45.25659" lon="5.84819">
        <ele>345</ele>
        <time>2010-06-06T07:10:56.187Z</time>
      </trkpt>
      <trkpt lat="45.2573" lon="5.84967">
        <ele>345</ele>
        <time>2010-06-06T07:10:56.474Z</time>
      </trkpt>
      <trkpt lat="45.25811" lon="5.85104">
        <ele>345</ele>
        <time>2010-06-06T07:10:56.740Z</time>
      </trkpt>
      <trkpt lat="45.25937" lon="5.853">
        <ele>346</ele>
        <time>2010-06-06T07:10:57.064Z</time>
      </trkpt>
      <trkpt lat="45.26361" lon="5.85857">
        <ele>326</ele>
        <time>2010-06-06T07:19:30Z</time>
      </trkpt>
      <trkpt lat="45.2637" lon="5.85805">
        <ele>331</ele>
        <time>2010-06-06T07:19:45Z</time>
      </trkpt>
      <trkpt lat="45.26393" lon="5.85778">
        <ele>332</ele>
        <time>2010-06-06T07:20:00Z</time>
      </trkpt>
      <trkpt lat="45.26412" lon="5.85743">
        <ele>335</ele>
        <time>2010-06-06T07:20:18Z</time>
      </trkpt>
      <trkpt lat="45.26427" lon="5.85708">
        <ele>339</ele>
        <time>2010-06-06T07:20:35Z</time>
      </trkpt>
      <trkpt lat="45.26442" lon="5.8567">
        <ele>341</ele>
        <time>2010-06-06T07:20:53Z</time>
      </trkpt>
      <trkpt lat="45.26468" lon="5.85637">
        <ele>346</ele>
        <time>2010-06-06T07:21:11Z</time>
      </trkpt>
      <trkpt lat="45.26494" lon="5.85625">
        <ele>347</ele>
        <time>2010-06-06T07:21:26Z</time>
      </trkpt>
      <trkpt lat="45.2652" lon="5.85601">
        <ele>350</ele>
        <time>2010-06-06T07:21:44Z</time>
      </trkpt>
      <trkpt lat="45.26536" lon="5.85576">
        <ele>355</ele>
        <time>2010-06-06T07:21:59Z</time>
      </trkpt>
      <trkpt lat="45.26543" lon="5.85541">
        <ele>357</ele>
        <time>2010-06-06T07:22:16Z</time>
      </trkpt>
      <trkpt lat="45.26546" lon="5.85508">
        <ele>358</ele>
        <time>2010-06-06T07:22:32Z</time>
      </trkpt>
      <trkpt lat="45.26556" lon="5.85468">
        <ele>364</ele>
        <time>2010-06-06T07:22:51Z</time>
      </trkpt>
      <trkpt lat="45.26567" lon="5.85428">
        <ele>366</ele>
        <time>2010-06-06T07:23:10Z</time>
      </trkpt>
      <trkpt lat="45.26577" lon="5.85398">
        <ele>370</ele>
        <time>2010-06-06T07:23:26Z</time>
      </trkpt>
      <trkpt lat="45.26589" lon="5.85359">
        <ele>374</ele>
        <time>2010-06-06T07:23:45Z</time>
      </trkpt>
      <trkpt lat="45.26603" lon="5.85317">
        <ele>378</ele>
        <time>2010-06-06T07:24:05Z</time>
      </trkpt>
      <trkpt lat="45.2662" lon="5.8528">
        <ele>380</ele>
        <time>2010-06-06T07:24:24Z</time>
      </trkpt>
      <trkpt lat="45.26638" lon="5.85239">
        <ele>384</ele>
        <time>2010-06-06T07:24:45Z</time>
      </trkpt>
      <trkpt lat="45.26673" lon="5.85137">
        <ele>393</ele>
        <time>2010-06-06T07:26:40Z</time>
      </trkpt>
      <trkpt lat="45.2668" lon="5.85099">
        <ele>394</ele>
        <time>2010-06-06T07:26:55Z</time>
      </trkpt>
      <trkpt lat="45.26686" lon="5.85063">
        <ele>399</ele>
        <time>2010-06-06T07:27:12Z</time>
      </trkpt>
      <trkpt lat="45.26687" lon="5.85026">
        <ele>402</ele>
        <time>2010-06-06T07:27:30Z</time>
      </trkpt>
      <trkpt lat="45.26687" lon="5.8499">
        <ele>406</ele>
        <time>2010-06-06T07:27:48Z</time>
      </trkpt>
      <trkpt lat="45.2669" lon="5.84952">
        <ele>408</ele>
        <time>2010-06-06T07:28:06Z</time>
      </trkpt>
      <trkpt lat="45.26691" lon="5.84943">
        <ele>409</ele>
        <time>2010-06-06T07:28:10Z</time>
      </trkpt>
      <trkpt lat="45.26705" lon="5.84909">
        <ele>414</ele>
        <time>2010-06-06T07:28:29Z</time>
      </trkpt>
      <trkpt lat="45.26724" lon="5.84882">
        <ele>415</ele>
        <time>2010-06-06T07:28:47Z</time>
      </trkpt>
      <trkpt lat="45.26751" lon="5.84854">
        <ele>420</ele>
        <time>2010-06-06T07:29:08Z</time>
      </trkpt>
      <trkpt lat="45.26766" lon="5.84827">
        <ele>425</ele>
        <time>2010-06-06T07:29:24Z</time>
      </trkpt>
      <trkpt lat="45.26786" lon="5.84799">
        <ele>428</ele>
        <time>2010-06-06T07:29:42Z</time>
      </trkpt>
      <trkpt lat="45.26809" lon="5.84778">
        <ele>430</ele>
        <time>2010-06-06T07:30:00Z</time>
      </trkpt>
      <trkpt lat="45.2683" lon="5.84755">
        <ele>434</ele>
        <time>2010-06-06T07:30:18Z</time>
      </trkpt>
      <trkpt lat="45.26849" lon="5.84731">
        <ele>439</ele>
        <time>2010-06-06T07:30:36Z</time>
      </trkpt>
      <trkpt lat="45.26886" lon="5.84712">
        <ele>442</ele>
        <time>2010-06-06T07:30:58Z</time>
      </trkpt>
      <trkpt lat="45.26936" lon="5.84731">
        <ele>445</ele>
        <time>2010-06-06T07:31:17Z</time>
      </trkpt>
      <trkpt lat="45.26976" lon="5.84755">
        <ele>441</ele>
        <time>2010-06-06T07:31:35Z</time>
      </trkpt>
      <trkpt lat="45.27017" lon="5.84786">
        <ele>441</ele>
        <time>2010-06-06T07:31:50Z</time>
      </trkpt>
      <trkpt lat="45.27058" lon="5.84804">
        <ele>441</ele>
        <time>2010-06-06T07:32:02Z</time>
      </trkpt>
      <trkpt lat="45.2708" lon="5.84813">
        <ele>440</ele>
        <time>2010-06-06T07:32:07Z</time>
      </trkpt>
      <trkpt lat="45.27104" lon="5.84818">
        <ele>442</ele>
        <time>2010-06-06T07:32:12Z</time>
      </trkpt>
      <trkpt lat="45.27142" lon="5.84822">
        <ele>442</ele>
        <time>2010-06-06T07:32:24Z</time>
      </trkpt>
      <trkpt lat="45.27144" lon="5.84822">
        <ele>442</ele>
        <time>2010-06-06T07:32:27Z</time>
      </trkpt>
      <trkpt lat="45.27149" lon="5.84798">
        <ele>444</ele>
        <time>2010-06-06T07:32:38Z</time>
      </trkpt>
      <trkpt lat="45.27156" lon="5.84761">
        <ele>447</ele>
        <time>2010-06-06T07:32:54Z</time>
      </trkpt>
      <trkpt lat="45.27159" lon="5.84724">
        <ele>452</ele>
        <time>2010-06-06T07:33:13Z</time>
      </trkpt>
      <trkpt lat="45.27157" lon="5.84693">
        <ele>454</ele>
        <time>2010-06-06T07:33:31Z</time>
      </trkpt>
      <trkpt lat="45.27156" lon="5.84681">
        <ele>455</ele>
        <time>2010-06-06T07:33:48Z</time>
      </trkpt>
      <trkpt lat="45.27156" lon="5.84681">
        <ele>455</ele>
        <time>2010-06-06T07:33:50Z</time>
      </trkpt>
      <trkpt lat="45.27179" lon="5.84654">
        <ele>462</ele>
        <time>2010-06-06T07:34:05Z</time>
      </trkpt>
      <trkpt lat="45.27188" lon="5.84649">
        <ele>464</ele>
        <time>2010-06-06T07:34:14Z</time>
      </trkpt>
      <trkpt lat="45.27188" lon="5.84649">
        <ele>464</ele>
        <time>2010-06-06T07:34:27Z</time>
      </trkpt>
      <trkpt lat="45.27188" lon="5.84649">
        <ele>464</ele>
        <time>2010-06-06T07:34:40Z</time>
      </trkpt>
      <trkpt lat="45.27188" lon="5.84649">
        <ele>464</ele>
        <time>2010-06-06T07:34:56Z</time>
      </trkpt>
      <trkpt lat="45.27188" lon="5.84649">
        <ele>464</ele>
        <time>2010-06-06T07:35:14Z</time>
      </trkpt>
      <trkpt lat="45.27188" lon="5.84649">
        <ele>464</ele>
        <time>2010-06-06T07:35:30Z</time>
      </trkpt>
      <trkpt lat="45.27188" lon="5.84649">
        <ele>464</ele>
        <time>2010-06-06T07:35:47Z</time>
      </trkpt>
      <trkpt lat="45.27188" lon="5.84649">
        <ele>464</ele>
        <time>2010-06-06T07:36:05Z</time>
      </trkpt>
      <trkpt lat="45.27188" lon="5.84649">
        <ele>464</ele>
        <time>2010-06-06T07:36:22Z</time>
      </trkpt>
      <trkpt lat="45.27188" lon="5.84649">
        <ele>464</ele>
        <time>2010-06-06T07:36:34Z</time>
      </trkpt>
      <trkpt lat="45.27188" lon="5.84649">
        <ele>464</ele>
        <time>2010-06-06T07:37:18Z</time>
      </trkpt>
      <trkpt lat="45.27188" lon="5.84649">
        <ele>464</ele>
        <time>2010-06-06T07:37:20Z</time>
      </trkpt>
      <trkpt lat="45.27277" lon="5.8469">
        <ele>480</ele>
        <time>2010-06-06T07:37:38Z</time>
      </trkpt>
      <trkpt lat="45.27284" lon="5.84701">
        <ele>481</ele>
        <time>2010-06-06T07:37:45Z</time>
      </trkpt>
      <trkpt lat="45.27285" lon="5.84702">
        <ele>481</ele>
        <time>2010-06-06T07:37:48Z</time>
      </trkpt>
      <trkpt lat="45.27305" lon="5.84725">
        <ele>483</ele>
        <time>2010-06-06T07:37:57Z</time>
      </trkpt>
      <trkpt lat="45.27317" lon="5.84741">
        <ele>486</ele>
        <time>2010-06-06T07:38:01Z</time>
      </trkpt>
      <trkpt lat="45.27338" lon="5.84763">
        <ele>490</ele>
        <time>2010-06-06T07:38:09Z</time>
      </trkpt>
      <trkpt lat="45.27355" lon="5.84782">
        <ele>490</ele>
        <time>2010-06-06T07:38:15Z</time>
      </trkpt>
      <trkpt lat="45.27382" lon="5.84797">
        <ele>491</ele>
        <time>2010-06-06T07:38:25Z</time>
      </trkpt>
      <trkpt lat="45.27382" lon="5.84797">
        <ele>491</ele>
        <time>2010-06-06T07:38:27Z</time>
      </trkpt>
      <trkpt lat="45.27399" lon="5.84801">
        <ele>491</ele>
        <time>2010-06-06T07:38:39Z</time>
      </trkpt>
      <trkpt lat="45.27399" lon="5.84801">
        <ele>491</ele>
        <time>2010-06-06T07:38:41Z</time>
      </trkpt>
      <trkpt lat="45.27408" lon="5.84802">
        <ele>491</ele>
        <time>2010-06-06T07:38:45Z</time>
      </trkpt>
      <trkpt lat="45.27411" lon="5.84803">
        <ele>491</ele>
        <time>2010-06-06T07:38:48Z</time>
      </trkpt>
      <trkpt lat="45.27419" lon="5.84807">
        <ele>497</ele>
        <time>2010-06-06T07:38:53Z</time>
      </trkpt>
      <trkpt lat="45.27427" lon="5.84811">
        <ele>497</ele>
        <time>2010-06-06T07:39:00Z</time>
      </trkpt>
      <trkpt lat="45.27431" lon="5.84816">
        <ele>496</ele>
        <time>2010-06-06T07:39:05Z</time>
      </trkpt>
      <trkpt lat="45.2744" lon="5.84828">
        <ele>496</ele>
        <time>2010-06-06T07:39:13Z</time>
      </trkpt>
      <trkpt lat="45.27441" lon="5.8483">
        <ele>496</ele>
        <time>2010-06-06T07:39:14Z</time>
      </trkpt>
      <trkpt lat="45.27449" lon="5.8484">
        <ele>488</ele>
        <time>2010-06-06T07:39:20Z</time>
      </trkpt>
      <trkpt lat="45.27471" lon="5.84823">
        <ele>500</ele>
        <time>2010-06-06T07:39:23Z</time>
      </trkpt>
      <trkpt lat="45.27483" lon="5.8484">
        <ele>491</ele>
        <time>2010-06-06T07:39:28Z</time>
      </trkpt>
      <trkpt lat="45.27492" lon="5.84853">
        <ele>490</ele>
        <time>2010-06-06T07:39:33Z</time>
      </trkpt>
      <trkpt lat="45.27497" lon="5.84858">
        <ele>490</ele>
        <time>2010-06-06T07:39:35Z</time>
      </trkpt>
      <trkpt lat="45.27498" lon="5.84866">
        <ele>488</ele>
        <time>2010-06-06T07:39:37Z</time>
      </trkpt>
      <trkpt lat="45.275" lon="5.84884">
        <ele>485</ele>
        <time>2010-06-06T07:39:43Z</time>
      </trkpt>
      <trkpt lat="45.27505" lon="5.84901">
        <ele>488</ele>
        <time>2010-06-06T07:39:48Z</time>
      </trkpt>
      <trkpt lat="45.27506" lon="5.84904">
        <ele>487</ele>
        <time>2010-06-06T07:39:49Z</time>
      </trkpt>
      <trkpt lat="45.27505" lon="5.84907">
        <ele>486</ele>
        <time>2010-06-06T07:39:50Z</time>
      </trkpt>
      <trkpt lat="45.27502" lon="5.84919">
        <ele>479</ele>
        <time>2010-06-06T07:39:54Z</time>
      </trkpt>
      <trkpt lat="45.27502" lon="5.84937">
        <ele>479</ele>
        <time>2010-06-06T07:39:59Z</time>
      </trkpt>
      <trkpt lat="45.27499" lon="5.8495">
        <ele>472</ele>
        <time>2010-06-06T07:40:03Z</time>
      </trkpt>
      <trkpt lat="45.27496" lon="5.84958">
        <ele>471</ele>
        <time>2010-06-06T07:40:15Z</time>
      </trkpt>
      <trkpt lat="45.27496" lon="5.8497">
        <ele>469</ele>
        <time>2010-06-06T07:40:22Z</time>
      </trkpt>
      <trkpt lat="45.27489" lon="5.84985">
        <ele>467</ele>
        <time>2010-06-06T07:40:26Z</time>
      </trkpt>
      <trkpt lat="45.27473" lon="5.85004">
        <ele>456</ele>
        <time>2010-06-06T07:40:31Z</time>
      </trkpt>
      <trkpt lat="45.27467" lon="5.85017">
        <ele>455</ele>
        <time>2010-06-06T07:40:34Z</time>
      </trkpt>
      <trkpt lat="45.27462" lon="5.85029">
        <ele>453</ele>
        <time>2010-06-06T07:40:37Z</time>
      </trkpt>
      <trkpt lat="45.27462" lon="5.85041">
        <ele>452</ele>
        <time>2010-06-06T07:40:41Z</time>
      </trkpt>
      <trkpt lat="45.27462" lon="5.85041">
        <ele>452</ele>
        <time>2010-06-06T07:40:51Z</time>
      </trkpt>
      <trkpt lat="45.27462" lon="5.85041">
        <ele>452</ele>
        <time>2010-06-06T07:40:56Z</time>
      </trkpt>
      <trkpt lat="45.27462" lon="5.85043">
        <ele>452</ele>
        <time>2010-06-06T07:41:13Z</time>
      </trkpt>
      <trkpt lat="45.27462" lon="5.85059">
        <ele>450</ele>
        <time>2010-06-06T07:41:19Z</time>
      </trkpt>
      <trkpt lat="45.27462" lon="5.85066">
        <ele>449</ele>
        <time>2010-06-06T07:41:23Z</time>
      </trkpt>
      <trkpt lat="45.27472" lon="5.85114">
        <ele>435</ele>
        <time>2010-06-06T07:41:40Z</time>
      </trkpt>
      <trkpt lat="45.27471" lon="5.85111">
        <ele>435</ele>
        <time>2010-06-06T07:41:55Z</time>
      </trkpt>
      <trkpt lat="45.27539" lon="5.8518">
        <ele>437</ele>
        <time>2010-06-06T07:42:15Z</time>
      </trkpt>
      <trkpt lat="45.2758" lon="5.85206">
        <ele>439</ele>
        <time>2010-06-06T07:42:39Z</time>
      </trkpt>
      <trkpt lat="45.27617" lon="5.85228">
        <ele>450</ele>
        <time>2010-06-06T07:42:56Z</time>
      </trkpt>
      <trkpt lat="45.2766" lon="5.85255">
        <ele>447</ele>
        <time>2010-06-06T07:43:16Z</time>
      </trkpt>
      <trkpt lat="45.27701" lon="5.85264">
        <ele>450</ele>
        <time>2010-06-06T07:43:34Z</time>
      </trkpt>
      <trkpt lat="45.27726" lon="5.85253">
        <ele>453</ele>
        <time>2010-06-06T07:43:51Z</time>
      </trkpt>
      <trkpt lat="45.27728" lon="5.85249">
        <ele>463</ele>
        <time>2010-06-06T07:43:55Z</time>
      </trkpt>
      <trkpt lat="45.27728" lon="5.85229">
        <ele>465</ele>
        <time>2010-06-06T07:44:12Z</time>
      </trkpt>
      <trkpt lat="45.27711" lon="5.85205">
        <ele>466</ele>
        <time>2010-06-06T07:44:30Z</time>
      </trkpt>
      <trkpt lat="45.27691" lon="5.852">
        <ele>466</ele>
        <time>2010-06-06T07:44:48Z</time>
      </trkpt>
      <trkpt lat="45.27673" lon="5.85193">
        <ele>467</ele>
        <time>2010-06-06T07:45:04Z</time>
      </trkpt>
      <trkpt lat="45.27668" lon="5.85174">
        <ele>470</ele>
        <time>2010-06-06T07:45:15Z</time>
      </trkpt>
      <trkpt lat="45.27672" lon="5.85149">
        <ele>476</ele>
        <time>2010-06-06T07:45:31Z</time>
      </trkpt>
      <trkpt lat="45.27675" lon="5.85134">
        <ele>478</ele>
        <time>2010-06-06T07:45:42Z</time>
      </trkpt>
      <trkpt lat="45.27675" lon="5.85134">
        <ele>478</ele>
        <time>2010-06-06T07:45:45Z</time>
      </trkpt>
      <trkpt lat="45.27675" lon="5.85134">
        <ele>478</ele>
        <time>2010-06-06T07:46:03Z</time>
      </trkpt>
      <trkpt lat="45.2768" lon="5.85114">
        <ele>480</ele>
        <time>2010-06-06T07:47:29Z</time>
      </trkpt>
      <trkpt lat="45.2768" lon="5.85114">
        <ele>480</ele>
        <time>2010-06-06T07:47:44Z</time>
      </trkpt>
      <trkpt lat="45.2768" lon="5.85114">
        <ele>480</ele>
        <time>2010-06-06T07:48:44Z</time>
      </trkpt>
      <trkpt lat="45.2768" lon="5.85114">
        <ele>480</ele>
        <time>2010-06-06T07:48:55Z</time>
      </trkpt>
      <trkpt lat="45.27673" lon="5.8511">
        <ele>480</ele>
        <time>2010-06-06T07:49:04Z</time>
      </trkpt>
      <trkpt lat="45.2769" lon="5.8512">
        <ele>480</ele>
        <time>2010-06-06T07:49:14Z</time>
      </trkpt>
      <trkpt lat="45.27705" lon="5.85125">
        <ele>481</ele>
        <time>2010-06-06T07:49:29Z</time>
      </trkpt>
      <trkpt lat="45.27705" lon="5.85127">
        <ele>481</ele>
        <time>2010-06-06T07:49:43Z</time>
      </trkpt>
      <trkpt lat="45.27706" lon="5.85128">
        <ele>481</ele>
        <time>2010-06-06T07:49:46Z</time>
      </trkpt>
      <trkpt lat="45.27712" lon="5.85131">
        <ele>481</ele>
        <time>2010-06-06T07:49:51Z</time>
      </trkpt>
      <trkpt lat="45.27717" lon="5.85136">
        <ele>481</ele>
        <time>2010-06-06T07:49:55Z</time>
      </trkpt>
      <trkpt lat="45.2773" lon="5.85146">
        <ele>480</ele>
        <time>2010-06-06T07:50:03Z</time>
      </trkpt>
      <trkpt lat="45.27734" lon="5.85151">
        <ele>480</ele>
        <time>2010-06-06T07:50:06Z</time>
      </trkpt>
      <trkpt lat="45.27741" lon="5.85153">
        <ele>480</ele>
        <time>2010-06-06T07:50:16Z</time>
      </trkpt>
      <trkpt lat="45.27743" lon="5.85153">
        <ele>480</ele>
        <time>2010-06-06T07:50:17Z</time>
      </trkpt>
      <trkpt lat="45.27752" lon="5.85161">
        <ele>482</ele>
        <time>2010-06-06T07:50:23Z</time>
      </trkpt>
      <trkpt lat="45.27775" lon="5.85189">
        <ele>477</ele>
        <time>2010-06-06T07:50:35Z</time>
      </trkpt>
      <trkpt lat="45.27781" lon="5.852">
        <ele>476</ele>
        <time>2010-06-06T07:50:38Z</time>
      </trkpt>
      <trkpt lat="45.27789" lon="5.8522">
        <ele>475</ele>
        <time>2010-06-06T07:50:44Z</time>
      </trkpt>
      <trkpt lat="45.27802" lon="5.85238">
        <ele>473</ele>
        <time>2010-06-06T07:50:51Z</time>
      </trkpt>
      <trkpt lat="45.27806" lon="5.85251">
        <ele>461</ele>
        <time>2010-06-06T07:50:55Z</time>
      </trkpt>
      <trkpt lat="45.27813" lon="5.85276">
        <ele>459</ele>
        <time>2010-06-06T07:51:00Z</time>
      </trkpt>
      <trkpt lat="45.27815" lon="5.85288">
        <ele>458</ele>
        <time>2010-06-06T07:51:03Z</time>
      </trkpt>
      <trkpt lat="45.2781" lon="5.85296">
        <ele>456</ele>
        <time>2010-06-06T07:51:06Z</time>
      </trkpt>
      <trkpt lat="45.27811" lon="5.85302">
        <ele>456</ele>
        <time>2010-06-06T07:51:09Z</time>
      </trkpt>
      <trkpt lat="45.27823" lon="5.85323">
        <ele>452</ele>
        <time>2010-06-06T07:51:16Z</time>
      </trkpt>
      <trkpt lat="45.27839" lon="5.85334">
        <ele>445</ele>
        <time>2010-06-06T07:51:21Z</time>
      </trkpt>
      <trkpt lat="45.27846" lon="5.85336">
        <ele>442</ele>
        <time>2010-06-06T07:51:31Z</time>
      </trkpt>
      <trkpt lat="45.27847" lon="5.85339">
        <ele>441</ele>
        <time>2010-06-06T07:51:40Z</time>
      </trkpt>
      <trkpt lat="45.2785" lon="5.85342">
        <ele>439</ele>
        <time>2010-06-06T07:51:42Z</time>
      </trkpt>
      <trkpt lat="45.27847" lon="5.85359">
        <ele>435</ele>
        <time>2010-06-06T07:51:47Z</time>
      </trkpt>
      <trkpt lat="45.27839" lon="5.85373">
        <ele>432</ele>
        <time>2010-06-06T07:51:51Z</time>
      </trkpt>
      <trkpt lat="45.27829" lon="5.85386">
        <ele>434</ele>
        <time>2010-06-06T07:51:56Z</time>
      </trkpt>
      <trkpt lat="45.2782" lon="5.85401">
        <ele>431</ele>
        <time>2010-06-06T07:52:01Z</time>
      </trkpt>
      <trkpt lat="45.27808" lon="5.8542">
        <ele>416</ele>
        <time>2010-06-06T07:52:07Z</time>
      </trkpt>
      <trkpt lat="45.27804" lon="5.85427">
        <ele>415</ele>
        <time>2010-06-06T07:52:09Z</time>
      </trkpt>
      <trkpt lat="45.27796" lon="5.8544">
        <ele>413</ele>
        <time>2010-06-06T07:52:13Z</time>
      </trkpt>
      <trkpt lat="45.27789" lon="5.85443">
        <ele>413</ele>
        <time>2010-06-06T07:52:16Z</time>
      </trkpt>
      <trkpt lat="45.27787" lon="5.85449">
        <ele>412</ele>
        <time>2010-06-06T07:52:19Z</time>
      </trkpt>
      <trkpt lat="45.27776" lon="5.85464">
        <ele>410</ele>
        <time>2010-06-06T07:52:31Z</time>
      </trkpt>
      <trkpt lat="45.27754" lon="5.85459">
        <ele>410</ele>
        <time>2010-06-06T07:52:42Z</time>
      </trkpt>
      <trkpt lat="45.27717" lon="5.8543">
        <ele>410</ele>
        <time>2010-06-06T07:53:01Z</time>
      </trkpt>
      <trkpt lat="45.27684" lon="5.85401">
        <ele>420</ele>
        <time>2010-06-06T07:53:19Z</time>
      </trkpt>
      <trkpt lat="45.27658" lon="5.85383">
        <ele>414</ele>
        <time>2010-06-06T07:53:33Z</time>
      </trkpt>
      <trkpt lat="45.27615" lon="5.85341">
        <ele>416</ele>
        <time>2010-06-06T07:53:56Z</time>
      </trkpt>
      <trkpt lat="45.27567" lon="5.85305">
        <ele>419</ele>
        <time>2010-06-06T07:54:19Z</time>
      </trkpt>
      <trkpt lat="45.27525" lon="5.8528">
        <ele>419</ele>
        <time>2010-06-06T07:54:40Z</time>
      </trkpt>
      <trkpt lat="45.27506" lon="5.85223">
        <ele>430</ele>
        <time>2010-06-06T07:55:01Z</time>
      </trkpt>
      <trkpt lat="45.27481" lon="5.85155">
        <ele>432</ele>
        <time>2010-06-06T07:55:26Z</time>
      </trkpt>
      <trkpt lat="45.27466" lon="5.85094">
        <ele>437</ele>
        <time>2010-06-06T07:55:46Z</time>
      </trkpt>
      <trkpt lat="45.27464" lon="5.85085">
        <ele>437</ele>
        <time>2010-06-06T07:55:58Z</time>
      </trkpt>
      <trkpt lat="45.27465" lon="5.85085">
        <ele>437</ele>
        <time>2010-06-06T07:56:22Z</time>
      </trkpt>
      <trkpt lat="45.27465" lon="5.85085">
        <ele>437</ele>
        <time>2010-06-06T07:56:29Z</time>
      </trkpt>
      <trkpt lat="45.27459" lon="5.85093">
        <ele>436</ele>
        <time>2010-06-06T07:56:33Z</time>
      </trkpt>
      <trkpt lat="45.27454" lon="5.85098">
        <ele>435</ele>
        <time>2010-06-06T07:56:35Z</time>
      </trkpt>
      <trkpt lat="45.27447" lon="5.85109">
        <ele>434</ele>
        <time>2010-06-06T07:56:38Z</time>
      </trkpt>
      <trkpt lat="45.27438" lon="5.85126">
        <ele>431</ele>
        <time>2010-06-06T07:56:42Z</time>
      </trkpt>
      <trkpt lat="45.27436" lon="5.8513">
        <ele>431</ele>
        <time>2010-06-06T07:56:43Z</time>
      </trkpt>
      <trkpt lat="45.27431" lon="5.85137">
        <ele>429</ele>
        <time>2010-06-06T07:56:45Z</time>
      </trkpt>
      <trkpt lat="45.2742" lon="5.85153">
        <ele>423</ele>
        <time>2010-06-06T07:56:49Z</time>
      </trkpt>
      <trkpt lat="45.27415" lon="5.85169">
        <ele>415</ele>
        <time>2010-06-06T07:56:53Z</time>
      </trkpt>
      <trkpt lat="45.27412" lon="5.85172">
        <ele>414</ele>
        <time>2010-06-06T07:56:55Z</time>
      </trkpt>
      <trkpt lat="45.27405" lon="5.85176">
        <ele>412</ele>
        <time>2010-06-06T07:56:57Z</time>
      </trkpt>
      <trkpt lat="45.27392" lon="5.85198">
        <ele>409</ele>
        <time>2010-06-06T07:57:02Z</time>
      </trkpt>
      <trkpt lat="45.27384" lon="5.85211">
        <ele>407</ele>
        <time>2010-06-06T07:57:05Z</time>
      </trkpt>
      <trkpt lat="45.27377" lon="5.85225">
        <ele>406</ele>
        <time>2010-06-06T07:57:08Z</time>
      </trkpt>
      <trkpt lat="45.27375" lon="5.85229">
        <ele>405</ele>
        <time>2010-06-06T07:57:09Z</time>
      </trkpt>
      <trkpt lat="45.27369" lon="5.85241">
        <ele>404</ele>
        <time>2010-06-06T07:57:19Z</time>
      </trkpt>
      <trkpt lat="45.27369" lon="5.85241">
        <ele>404</ele>
        <time>2010-06-06T07:57:36Z</time>
      </trkpt>
      <trkpt lat="45.27373" lon="5.85265">
        <ele>392</ele>
        <time>2010-06-06T07:57:45Z</time>
      </trkpt>
      <trkpt lat="45.27378" lon="5.85286">
        <ele>391</ele>
        <time>2010-06-06T07:57:49Z</time>
      </trkpt>
      <trkpt lat="45.27381" lon="5.85302">
        <ele>390</ele>
        <time>2010-06-06T07:57:51Z</time>
      </trkpt>
      <trkpt lat="45.27385" lon="5.85328">
        <ele>388</ele>
        <time>2010-06-06T07:57:54Z</time>
      </trkpt>
      <trkpt lat="45.27386" lon="5.8535">
        <ele>379</ele>
        <time>2010-06-06T07:57:57Z</time>
      </trkpt>
      <trkpt lat="45.27382" lon="5.85378">
        <ele>377</ele>
        <time>2010-06-06T07:58:01Z</time>
      </trkpt>
      <trkpt lat="45.27381" lon="5.85409">
        <ele>375</ele>
        <time>2010-06-06T07:58:05Z</time>
      </trkpt>
      <trkpt lat="45.27381" lon="5.8544">
        <ele>367</ele>
        <time>2010-06-06T07:58:08Z</time>
      </trkpt>
      <trkpt lat="45.27384" lon="5.85484">
        <ele>365</ele>
        <time>2010-06-06T07:58:13Z</time>
      </trkpt>
      <trkpt lat="45.27384" lon="5.85514">
        <ele>359</ele>
        <time>2010-06-06T07:58:16Z</time>
      </trkpt>
      <trkpt lat="45.27384" lon="5.85533">
        <ele>358</ele>
        <time>2010-06-06T07:58:18Z</time>
      </trkpt>
      <trkpt lat="45.27379" lon="5.85554">
        <ele>357</ele>
        <time>2010-06-06T07:58:21Z</time>
      </trkpt>
      <trkpt lat="45.27379" lon="5.85558">
        <ele>357</ele>
        <time>2010-06-06T07:58:22Z</time>
      </trkpt>
      <trkpt lat="45.27378" lon="5.85563">
        <ele>357</ele>
        <time>2010-06-06T07:58:25Z</time>
      </trkpt>
      <trkpt lat="45.27384" lon="5.85581">
        <ele>356</ele>
        <time>2010-06-06T07:58:29Z</time>
      </trkpt>
      <trkpt lat="45.2741" lon="5.85609">
        <ele>352</ele>
        <time>2010-06-06T07:58:34Z</time>
      </trkpt>
      <trkpt lat="45.27417" lon="5.85646">
        <ele>351</ele>
        <time>2010-06-06T07:58:38Z</time>
      </trkpt>
      <trkpt lat="45.27424" lon="5.85668">
        <ele>348</ele>
        <time>2010-06-06T07:58:41Z</time>
      </trkpt>
      <trkpt lat="45.2744" lon="5.85694">
        <ele>346</ele>
        <time>2010-06-06T07:58:44Z</time>
      </trkpt>
      <trkpt lat="45.27452" lon="5.85713">
        <ele>345</ele>
        <time>2010-06-06T07:58:46Z</time>
      </trkpt>
      <trkpt lat="45.27477" lon="5.85766">
        <ele>337</ele>
        <time>2010-06-06T07:58:51Z</time>
      </trkpt>
      <trkpt lat="45.27482" lon="5.85776">
        <ele>337</ele>
        <time>2010-06-06T07:58:52Z</time>
      </trkpt>
      <trkpt lat="45.27515" lon="5.85827">
        <ele>333</ele>
        <time>2010-06-06T07:59:01Z</time>
      </trkpt>
      <trkpt lat="45.27517" lon="5.85829">
        <ele>333</ele>
        <time>2010-06-06T07:59:02Z</time>
      </trkpt>
      <trkpt lat="45.27522" lon="5.85843">
        <ele>330</ele>
        <time>2010-06-06T07:59:06Z</time>
      </trkpt>
      <trkpt lat="45.27473" lon="5.85895">
        <ele>332</ele>
        <time>2010-06-06T07:59:22Z</time>
      </trkpt>
      <trkpt lat="45.27463" lon="5.85908">
        <ele>332</ele>
        <time>2010-06-06T07:59:25Z</time>
      </trkpt>
      <trkpt lat="45.27447" lon="5.85929">
        <ele>330</ele>
        <time>2010-06-06T07:59:29Z</time>
      </trkpt>
      <trkpt lat="45.2741" lon="5.85982">
        <ele>331</ele>
        <time>2010-06-06T07:59:38Z</time>
      </trkpt>
      <trkpt lat="45.27406" lon="5.85988">
        <ele>331</ele>
        <time>2010-06-06T07:59:40Z</time>
      </trkpt>
      <trkpt lat="45.27406" lon="5.85988">
        <ele>331</ele>
        <time>2010-06-06T07:59:43Z</time>
      </trkpt>
      <trkpt lat="45.27365" lon="5.8598">
        <ele>332</ele>
        <time>2010-06-06T07:59:57Z</time>
      </trkpt>
      <trkpt lat="45.27329" lon="5.85974">
        <ele>334</ele>
        <time>2010-06-06T08:00:11Z</time>
      </trkpt>
      <trkpt lat="45.27291" lon="5.85965">
        <ele>335</ele>
        <time>2010-06-06T08:00:28Z</time>
      </trkpt>
      <trkpt lat="45.27233" lon="5.85962">
        <ele>337</ele>
        <time>2010-06-06T08:00:44Z</time>
      </trkpt>
      <trkpt lat="45.27183" lon="5.85954">
        <ele>339</ele>
        <time>2010-06-06T08:01:03Z</time>
      </trkpt>
      <trkpt lat="45.27102" lon="5.8592">
        <ele>340</ele>
        <time>2010-06-06T08:01:13.823Z</time>
      </trkpt>
      <trkpt lat="45.27036" lon="5.85944">
        <ele>339</ele>
        <time>2010-06-06T08:01:30.849Z</time>
      </trkpt>
      <trkpt lat="45.27004" lon="5.85992">
        <ele>337</ele>
        <time>2010-06-06T08:01:57.214Z</time>
      </trkpt>
      <trkpt lat="45.26971" lon="5.86051">
        <ele>332</ele>
        <time>2010-06-06T08:02:25.954Z</time>
      </trkpt>
      <trkpt lat="45.26958" lon="5.86077">
        <ele>331</ele>
        <time>2010-06-06T08:02:37.749Z</time>
      </trkpt>
      <trkpt lat="45.2696" lon="5.86121">
        <ele>324</ele>
        <time>2010-06-06T08:02:53.199Z</time>
      </trkpt>
      <trkpt lat="45.26971" lon="5.86153">
        <ele>322</ele>
        <time>2010-06-06T08:03:05.379Z</time>
      </trkpt>
      <trkpt lat="45.26987" lon="5.86203">
        <ele>318</ele>
        <time>2010-06-06T08:03:22.867Z</time>
      </trkpt>
      <trkpt lat="45.26914" lon="5.86204">
        <ele>320</ele>
        <time>2010-06-06T08:03:55.404Z</time>
      </trkpt>
      <trkpt lat="45.26834" lon="5.86218">
        <ele>320</ele>
        <time>2010-06-06T08:04:30.594Z</time>
      </trkpt>
      <trkpt lat="45.26764" lon="5.86215">
        <ele>318</ele>
        <time>2010-06-06T08:05:00.773Z</time>
      </trkpt>
      <trkpt lat="45.26717" lon="5.86234">
        <ele>315</ele>
        <time>2010-06-06T08:05:21.589Z</time>
      </trkpt>
      <trkpt lat="45.26693" lon="5.86241">
        <ele>314</ele>
        <time>2010-06-06T08:05:31.786Z</time>
      </trkpt>
      <trkpt lat="45.26663" lon="5.86257">
        <ele>310</ele>
        <time>2010-06-06T08:05:44.611Z</time>
      </trkpt>
      <trkpt lat="45.26611" lon="5.8619">
        <ele>312</ele>
        <time>2010-06-06T08:06:13.337Z</time>
      </trkpt>
      <trkpt lat="45.2661" lon="5.86167">
        <ele>313</ele>
        <time>2010-06-06T08:06:19.701Z</time>
      </trkpt>
      <trkpt lat="45.26608" lon="5.86151">
        <ele>316</ele>
        <time>2010-06-06T08:06:24.524Z</time>
      </trkpt>
      <trkpt lat="45.26601" lon="5.86142">
        <ele>316</ele>
        <time>2010-06-06T08:06:27.989Z</time>
      </trkpt>
      <trkpt lat="45.26594" lon="5.86144">
        <ele>316</ele>
        <time>2010-06-06T08:06:34.761Z</time>
      </trkpt>
      <trkpt lat="45.26583" lon="5.86139">
        <ele>314</ele>
        <time>2010-06-06T08:06:39.399Z</time>
      </trkpt>
      <trkpt lat="45.26137" lon="5.85598">
        <ele>337</ele>
        <time>2010-06-06T08:10:30Z</time>
      </trkpt>
      <trkpt lat="45.2607" lon="5.85505">
        <ele>338</ele>
        <time>2010-06-06T08:10:55Z</time>
      </trkpt>
      <trkpt lat="45.2601" lon="5.85411">
        <ele>343</ele>
        <time>2010-06-06T08:11:20Z</time>
      </trkpt>
      <trkpt lat="45.25933" lon="5.85287">
        <ele>346</ele>
        <time>2010-06-06T08:11:52Z</time>
      </trkpt>
      <trkpt lat="45.25869" lon="5.85185">
        <ele>346</ele>
        <time>2010-06-06T08:12:14Z</time>
      </trkpt>
      <trkpt lat="45.25863" lon="5.85176">
        <ele>346</ele>
        <time>2010-06-06T08:12:16Z</time>
      </trkpt>
      <trkpt lat="45.25814" lon="5.85092">
        <ele>346</ele>
        <time>2010-06-06T08:12:32Z</time>
      </trkpt>
      <trkpt lat="45.25732" lon="5.84959">
        <ele>346</ele>
        <time>2010-06-06T08:13:10.573Z</time>
      </trkpt>
      <trkpt lat="45.25662" lon="5.84805">
        <ele>345</ele>
        <time>2010-06-06T08:13:49.755Z</time>
      </trkpt>
      <trkpt lat="45.25625" lon="5.84685">
        <ele>346</ele>
        <time>2010-06-06T08:14:17Z</time>
      </trkpt>
      <trkpt lat="45.25512" lon="5.84314">
        <ele>349</ele>
        <time>2010-06-06T08:14:30Z</time>
      </trkpt>
      <trkpt lat="45.25517" lon="5.843">
        <ele>351</ele>
        <time>2010-06-06T08:14:43Z</time>
      </trkpt>
      <trkpt lat="45.25516" lon="5.84281">
        <ele>351</ele>
        <time>2010-06-06T08:14:56Z</time>
      </trkpt>
      <trkpt lat="45.25506" lon="5.84269">
        <ele>350</ele>
        <time>2010-06-06T08:15:09Z</time>
      </trkpt>
      <trkpt lat="45.25493" lon="5.84269">
        <ele>347</ele>
        <time>2010-06-06T08:15:22Z</time>
      </trkpt>
      <trkpt lat="45.25484" lon="5.84286">
        <ele>346</ele>
        <time>2010-06-06T08:15:35Z</time>
      </trkpt>
      <trkpt lat="45.25466" lon="5.84301">
        <ele>345</ele>
        <time>2010-06-06T08:15:48Z</time>
      </trkpt>
      <trkpt lat="45.25454" lon="5.8431">
        <ele>344</ele>
        <time>2010-06-06T08:16:01Z</time>
      </trkpt>
      <trkpt lat="45.25435" lon="5.84314">
        <ele>343</ele>
        <time>2010-06-06T08:16:14Z</time>
      </trkpt>
      <trkpt lat="45.25412" lon="5.84309">
        <ele>339</ele>
        <time>2010-06-06T08:16:27Z</time>
      </trkpt>
      <trkpt lat="45.254" lon="5.84302">
        <ele>339</ele>
        <time>2010-06-06T08:16:40Z</time>
      </trkpt>
      <trkpt lat="45.2538" lon="5.84287">
        <ele>339</ele>
        <time>2010-06-06T08:16:53Z</time>
      </trkpt>
      <trkpt lat="45.25356" lon="5.8427">
        <ele>338</ele>
        <time>2010-06-06T08:17:06Z</time>
      </trkpt>
      <trkpt lat="45.25336" lon="5.8426">
        <ele>337</ele>
        <time>2010-06-06T08:17:19Z</time>
      </trkpt>
      <trkpt lat="45.25312" lon="5.84254">
        <ele>333</ele>
        <time>2010-06-06T08:17:32Z</time>
      </trkpt>
      <trkpt lat="45.2529" lon="5.84255">
        <ele>331</ele>
        <time>2010-06-06T08:17:45Z</time>
      </trkpt>
      <trkpt lat="45.25272" lon="5.84269">
        <ele>330</ele>
        <time>2010-06-06T08:17:58Z</time>
      </trkpt>
      <trkpt lat="45.25259" lon="5.84278">
        <ele>330</ele>
        <time>2010-06-06T08:18:11Z</time>
      </trkpt>
      <trkpt lat="45.25238" lon="5.84297">
        <ele>324</ele>
        <time>2010-06-06T08:18:24Z</time>
      </trkpt>
      <trkpt lat="45.25222" lon="5.84313">
        <ele>324</ele>
        <time>2010-06-06T08:18:37Z</time>
      </trkpt>
      <trkpt lat="45.25212" lon="5.84325">
        <ele>323</ele>
        <time>2010-06-06T08:18:50Z</time>
      </trkpt>
      <trkpt lat="45.252" lon="5.84342">
        <ele>321</ele>
        <time>2010-06-06T08:19:03Z</time>
      </trkpt>
      <trkpt lat="45.25183" lon="5.84352">
        <ele>320</ele>
        <time>2010-06-06T08:19:16Z</time>
      </trkpt>
      <trkpt lat="45.25168" lon="5.8436">
        <ele>319</ele>
        <time>2010-06-06T08:19:29Z</time>
      </trkpt>
      <trkpt lat="45.25151" lon="5.84363">
        <ele>315</ele>
        <time>2010-06-06T08:19:42Z</time>
      </trkpt>
      <trkpt lat="45.25133" lon="5.8436">
        <ele>315</ele>
        <time>2010-06-06T08:19:55Z</time>
      </trkpt>
      <trkpt lat="45.25113" lon="5.84351">
        <ele>315</ele>
        <time>2010-06-06T08:20:08Z</time>
      </trkpt>
      <trkpt lat="45.25099" lon="5.84347">
        <ele>314</ele>
        <time>2010-06-06T08:20:21Z</time>
      </trkpt>
      <trkpt lat="45.25083" lon="5.84343">
        <ele>312</ele>
        <time>2010-06-06T08:20:34Z</time>
      </trkpt>
      <trkpt lat="45.25067" lon="5.84343">
        <ele>311</ele>
        <time>2010-06-06T08:20:47Z</time>
      </trkpt>
      <trkpt lat="45.25057" lon="5.84343">
        <ele>310</ele>
        <time>2010-06-06T08:21:00Z</time>
      </trkpt>
      <trkpt lat="45.2505" lon="5.84339">
        <ele>309</ele>
        <time>2010-06-06T08:21:13Z</time>
      </trkpt>
      <trkpt lat="45.2504" lon="5.8433">
        <ele>310</ele>
        <time>2010-06-06T08:21:26Z</time>
      </trkpt>
      <trkpt lat="45.25029" lon="5.84314">
        <ele>309</ele>
        <time>2010-06-06T08:21:39Z</time>
      </trkpt>
      <trkpt lat="45.25023" lon="5.84307">
        <ele>309</ele>
        <time>2010-06-06T08:21:52Z</time>
      </trkpt>
      <trkpt lat="45.25017" lon="5.84295">
        <ele>309</ele>
        <time>2010-06-06T08:22:05Z</time>
      </trkpt>
      <trkpt lat="45.25007" lon="5.84296">
        <ele>308</ele>
        <time>2010-06-06T08:22:18Z</time>
      </trkpt>
      <trkpt lat="45.24994" lon="5.84297">
        <ele>303</ele>
        <time>2010-06-06T08:22:31Z</time>
      </trkpt>
      <trkpt lat="45.24984" lon="5.84302">
        <ele>303</ele>
        <time>2010-06-06T08:22:44Z</time>
      </trkpt>
      <trkpt lat="45.24973" lon="5.84304">
        <ele>302</ele>
        <time>2010-06-06T08:22:57Z</time>
      </trkpt>
      <trkpt lat="45.24962" lon="5.84307">
        <ele>302</ele>
        <time>2010-06-06T08:23:10Z</time>
      </trkpt>
      <trkpt lat="45.24949" lon="5.84311">
        <ele>301</ele>
        <time>2010-06-06T08:23:23Z</time>
      </trkpt>
      <trkpt lat="45.24936" lon="5.84312">
        <ele>300</ele>
        <time>2010-06-06T08:23:36Z</time>
      </trkpt>
      <trkpt lat="45.24929" lon="5.84317">
        <ele>300</ele>
        <time>2010-06-06T08:23:49Z</time>
      </trkpt>
      <trkpt lat="45.24911" lon="5.84324">
        <ele>296</ele>
        <time>2010-06-06T08:24:02Z</time>
      </trkpt>
      <trkpt lat="45.24901" lon="5.84326">
        <ele>296</ele>
        <time>2010-06-06T08:24:15Z</time>
      </trkpt>
      <trkpt lat="45.24883" lon="5.84326">
        <ele>294</ele>
        <time>2010-06-06T08:24:28Z</time>
      </trkpt>
      <trkpt lat="45.24872" lon="5.84329">
        <ele>293</ele>
        <time>2010-06-06T08:24:41Z</time>
      </trkpt>
      <trkpt lat="45.24861" lon="5.84335">
        <ele>293</ele>
        <time>2010-06-06T08:24:54Z</time>
      </trkpt>
      <trkpt lat="45.24854" lon="5.8434">
        <ele>292</ele>
        <time>2010-06-06T08:25:07Z</time>
      </trkpt>
    </trkseg>
  </trk>
</gpx>